Time,TemperatureF,DewpointF,PressureIn,WindDirection,WindDirectionDegrees,WindSpeedMPH,WindSpeedGustMPH,Humidity,HourlyPrecipIn,Conditions,Clouds,dailyrainin,SoftwareType,DateUTC
2013-09-24 00:22:00,57.0,45.0,-100.00,SSE,150,5.0,8.0,65,0.00,,,-99.99,,2013-09-24 05:22:00,
2013-09-24 00:43:00,56.0,46.0,-100.00,SSE,155,6.0,7.0,67,0.00,,,-99.99,,2013-09-24 05:43:00,
2013-09-24 01:22:00,54.0,46.0,-100.00,SE,135,6.0,9.0,74,0.00,,,-99.99,,2013-09-24 06:22:00,
2013-09-24 01:42:00,54.0,46.0,-100.00,SE,140,10.0,12.0,76,0.00,,,-99.99,,2013-09-24 06:42:00,
2013-09-24 02:22:00,53.0,46.0,-100.00,SSE,150,4.0,6.0,78,0.00,,,-99.99,,2013-09-24 07:22:00,
2013-09-24 02:43:00,52.0,46.0,-100.00,SE,135,3.0,6.0,78,0.00,,,-99.99,,2013-09-24 07:43:00,
2013-09-24 03:22:00,51.0,46.0,-100.00,SSE,150,6.0,8.0,80,0.00,,,-99.99,,2013-09-24 08:22:00,
2013-09-24 03:42:00,51.0,45.0,-100.00,SSE,150,7.0,9.0,80,0.00,,,-99.99,,2013-09-24 08:42:00,
2013-09-24 04:21:00,50.0,45.0,-100.00,SSE,160,6.0,8.0,83,0.00,,,-99.99,,2013-09-24 09:21:00,
2013-09-24 04:43:00,50.0,46.0,-100.00,SSE,150,6.0,9.0,84,0.00,,,-99.99,,2013-09-24 09:43:00,
2013-09-24 05:23:00,50.0,45.0,-100.00,SSE,150,7.0,9.0,85,0.00,,,-99.99,,2013-09-24 10:23:00,
2013-09-24 05:42:00,50.0,46.0,-100.00,SSE,150,6.0,8.0,85,0.00,,,-99.99,,2013-09-24 10:42:00,
2013-09-24 07:42:00,50.0,46.0,-100.00,SSE,150,6.0,9.0,85,0.00,,,-99.99,,2013-09-24 12:42:00,
2013-09-24 08:22:00,53.0,48.0,-100.00,SSE,160,6.0,9.0,83,0.00,,,-99.99,,2013-09-24 13:22:00,
2013-09-24 08:42:00,55.0,48.0,-100.00,South,170,8.0,11.0,78,0.00,,,-99.99,,2013-09-24 13:42:00,
2013-09-24 09:21:00,58.0,48.0,-100.00,South,170,9.0,12.0,68,0.00,,,-99.99,,2013-09-24 14:21:00,
2013-09-24 09:42:00,60.0,47.0,-100.00,SSE,165,9.0,13.0,63,0.00,,,-99.99,,2013-09-24 14:42:00,
2013-09-24 10:22:00,62.0,47.0,-100.00,South,170,9.0,12.0,57,0.00,,,-99.99,,2013-09-24 15:22:00,
2013-09-24 10:43:00,64.0,47.0,-100.00,SSW,200,7.0,11.0,54,0.00,,,-99.99,,2013-09-24 15:43:00,
2013-09-24 11:23:00,67.0,48.0,-100.00,SSE,160,7.0,9.0,49,0.00,,,-99.99,,2013-09-24 16:23:00,
2013-09-24 11:43:00,68.0,48.0,-100.00,SSE,150,5.0,9.0,48,0.00,,,-99.99,,2013-09-24 16:43:00,
2013-09-24 12:23:00,70.0,49.0,-100.00,SSE,150,5.0,10.0,46,0.00,,,-99.99,,2013-09-24 17:23:00,
2013-09-24 12:43:00,71.0,49.0,-100.00,SSE,165,6.0,19.0,45,0.00,,,-99.99,,2013-09-24 17:43:00,
2013-09-24 13:22:00,72.0,48.0,-100.00,SSE,165,11.0,14.0,42,0.00,,,-99.99,,2013-09-24 18:22:00,
2013-09-24 13:42:00,73.0,48.0,-100.00,SSE,150,9.0,18.0,40,0.00,,,-99.99,,2013-09-24 18:42:00,
2013-09-24 14:22:00,74.0,47.0,-100.00,SSE,155,11.0,17.0,38,0.00,,,-99.99,,2013-09-24 19:22:00,
2013-09-24 14:42:00,75.0,47.0,-100.00,South,170,9.0,17.0,37,0.00,,,-99.99,,2013-09-24 19:42:00,
2013-09-24 15:22:00,72.0,45.0,-100.00,SSE,165,10.0,18.0,37,0.00,,,-99.99,,2013-09-24 20:22:00,
2013-09-24 15:42:00,73.0,46.0,-100.00,SE,140,7.0,17.0,37,0.00,,,-99.99,,2013-09-24 20:42:00,
2013-09-24 16:22:00,74.0,45.0,-100.00,SSE,160,9.0,17.0,35,0.00,,,-99.99,,2013-09-24 21:22:00,
2013-09-24 16:43:00,73.0,45.0,-100.00,SE,135,11.0,16.0,36,0.00,,,-99.99,,2013-09-24 21:43:00,
2013-09-24 17:23:00,74.0,45.0,-100.00,SE,145,7.0,12.0,36,0.00,,,-99.99,,2013-09-24 22:23:00,
2013-09-24 17:43:00,72.0,45.0,-100.00,SSE,160,7.0,11.0,37,0.00,,,-99.99,,2013-09-24 22:43:00,
2013-09-24 18:22:00,71.0,45.0,-100.00,SE,135,9.0,12.0,39,0.00,,,-99.99,,2013-09-24 23:22:00,
2013-09-24 18:43:00,71.0,46.0,-100.00,SE,135,6.0,10.0,40,0.00,,,-99.99,,2013-09-24 23:43:00,
2013-09-24 19:22:00,69.0,46.0,-100.00,SE,125,5.0,10.0,44,0.00,,,-99.99,,2013-09-25 00:22:00,
2013-09-24 19:42:00,67.0,47.0,-100.00,SE,135,5.0,8.0,47,0.00,,,-99.99,,2013-09-25 00:42:00,
2013-09-24 20:21:00,65.0,48.0,-100.00,East,100,6.0,10.0,53,0.00,,,-99.99,,2013-09-25 01:21:00,
2013-09-24 20:42:00,64.0,48.0,-100.00,ESE,115,7.0,11.0,56,0.00,,,-99.99,,2013-09-25 01:42:00,
2013-09-24 21:21:00,63.0,49.0,-100.00,SE,125,8.0,12.0,60,0.00,,,-99.99,,2013-09-25 02:21:00,
2013-09-24 21:42:00,62.0,49.0,-100.00,SE,125,7.0,11.0,60,0.00,,,-99.99,,2013-09-25 02:42:00,
2013-09-24 22:23:00,62.0,48.0,-100.00,ESE,110,6.0,9.0,62,0.00,,,-99.99,,2013-09-25 03:23:00,
2013-09-24 22:44:00,61.0,48.0,-100.00,ESE,115,6.0,10.0,63,0.00,,,-99.99,,2013-09-25 03:44:00,